sensor_id;sensor_type;location;lat;lon;timestamp;P1;durP1;ratioP1;P2;durP2;ratioP2
45322;SDS011;31382;50.200;8.674;2022-08-03T00:00:44;3.45;;;0.55;;
45322;SDS011;31382;50.200;8.674;2022-08-03T00:05:46;2.00;;;0.70;;
45322;SDS011;31382;50.200;8.674;2022-08-03T00:11:05;1.23;;;0.50;;
45322;SDS011;31382;50.200;8.674;2022-08-03T00:16:07;2.83;;;0.80;;
45322;SDS011;31382;50.200;8.674;2022-08-03T00:21:09;1.25;;;0.60;;
45322;SDS011;31382;50.200;8.674;2022-08-03T00:26:10;3.42;;;0.57;;
45322;SDS011;31382;50.200;8.674;2022-08-03T00:31:12;6.07;;;0.75;;
45322;SDS011;31382;50.200;8.674;2022-08-03T00:36:14;1.98;;;0.60;;
45322;SDS011;31382;50.200;8.674;2022-08-03T00:41:15;6.20;;;0.93;;
45322;SDS011;31382;50.200;8.674;2022-08-03T00:46:17;1.23;;;0.68;;
45322;SDS011;31382;50.200;8.674;2022-08-03T00:51:22;2.55;;;0.98;;
45322;SDS011;31382;50.200;8.674;2022-08-03T00:56:24;1.70;;;0.60;;
45322;SDS011;31382;50.200;8.674;2022-08-03T01:01:26;1.38;;;0.60;;
45322;SDS011;31382;50.200;8.674;2022-08-03T01:06:33;0.95;;;0.70;;
45322;SDS011;31382;50.200;8.674;2022-08-03T01:11:48;0.50;;;0.47;;
45322;SDS011;31382;50.200;8.674;2022-08-03T01:17:12;1.05;;;0.90;;
45322;SDS011;31382;50.200;8.674;2022-08-03T01:22:27;1.48;;;0.80;;
45322;SDS011;31382;50.200;8.674;2022-08-03T01:28:01;0.82;;;0.55;;
45322;SDS011;31382;50.200;8.674;2022-08-03T01:33:19;1.67;;;0.60;;
45322;SDS011;31382;50.200;8.674;2022-08-03T01:38:34;7.40;;;0.80;;
45322;SDS011;31382;50.200;8.674;2022-08-03T01:43:42;2.35;;;0.60;;
45322;SDS011;31382;50.200;8.674;2022-08-03T01:49:10;3.43;;;0.60;;
45322;SDS011;31382;50.200;8.674;2022-08-03T01:54:12;1.08;;;0.70;;
45322;SDS011;31382;50.200;8.674;2022-08-03T01:59:15;1.75;;;0.60;;
45322;SDS011;31382;50.200;8.674;2022-08-03T02:04:17;1.55;;;0.60;;
45322;SDS011;31382;50.200;8.674;2022-08-03T02:09:20;1.25;;;0.60;;
45322;SDS011;31382;50.200;8.674;2022-08-03T02:14:23;1.02;;;0.52;;
45322;SDS011;31382;50.200;8.674;2022-08-03T02:19:27;3.08;;;0.63;;
45322;SDS011;31382;50.200;8.674;2022-08-03T02:24:35;2.13;;;0.55;;
45322;SDS011;31382;50.200;8.674;2022-08-03T02:29:37;1.95;;;1.00;;
45322;SDS011;31382;50.200;8.674;2022-08-03T02:34:41;4.03;;;0.80;;
45322;SDS011;31382;50.200;8.674;2022-08-03T02:39:47;1.67;;;0.60;;
45322;SDS011;31382;50.200;8.674;2022-08-03T02:44:54;1.13;;;0.77;;
45322;SDS011;31382;50.200;8.674;2022-08-03T02:49:58;5.18;;;0.73;;
45322;SDS011;31382;50.200;8.674;2022-08-03T02:55:02;2.35;;;0.80;;
45322;SDS011;31382;50.200;8.674;2022-08-03T03:00:05;1.42;;;0.70;;
45322;SDS011;31382;50.200;8.674;2022-08-03T03:05:08;5.43;;;0.98;;
45322;SDS011;31382;50.200;8.674;2022-08-03T03:10:31;6.80;;;0.93;;
45322;SDS011;31382;50.200;8.674;2022-08-03T03:15:34;1.40;;;0.88;;
45322;SDS011;31382;50.200;8.674;2022-08-03T03:20:37;1.17;;;0.70;;
45322;SDS011;31382;50.200;8.674;2022-08-03T03:25:40;2.65;;;1.13;;
45322;SDS011;31382;50.200;8.674;2022-08-03T03:30:43;1.15;;;0.70;;
45322;SDS011;31382;50.200;8.674;2022-08-03T03:35:53;4.10;;;1.02;;
45322;SDS011;31382;50.200;8.674;2022-08-03T03:40:55;1.83;;;0.90;;
45322;SDS011;31382;50.200;8.674;2022-08-03T03:45:57;4.10;;;1.08;;
45322;SDS011;31382;50.200;8.674;2022-08-03T03:51:00;7.47;;;1.85;;
45322;SDS011;31382;50.200;8.674;2022-08-03T03:56:02;1.35;;;0.82;;
45322;SDS011;31382;50.200;8.674;2022-08-03T04:01:04;3.00;;;1.25;;
45322;SDS011;31382;50.200;8.674;2022-08-03T04:06:06;2.05;;;1.00;;
45322;SDS011;31382;50.200;8.674;2022-08-03T04:11:35;4.20;;;1.27;;
45322;SDS011;31382;50.200;8.674;2022-08-03T04:16:40;1.88;;;1.10;;
45322;SDS011;31382;50.200;8.674;2022-08-03T04:21:46;3.45;;;1.55;;
45322;SDS011;31382;50.200;8.674;2022-08-03T04:26:51;3.95;;;1.20;;
45322;SDS011;31382;50.200;8.674;2022-08-03T04:31:55;2.10;;;1.08;;
45322;SDS011;31382;50.200;8.674;2022-08-03T04:37:00;3.22;;;0.95;;
45322;SDS011;31382;50.200;8.674;2022-08-03T04:42:06;2.35;;;1.13;;
45322;SDS011;31382;50.200;8.674;2022-08-03T04:47:09;2.22;;;1.17;;
45322;SDS011;31382;50.200;8.674;2022-08-03T04:52:11;5.82;;;1.25;;
45322;SDS011;31382;50.200;8.674;2022-08-03T04:57:13;2.38;;;1.15;;
45322;SDS011;31382;50.200;8.674;2022-08-03T05:02:22;3.15;;;1.42;;
45322;SDS011;31382;50.200;8.674;2022-08-03T05:07:24;8.13;;;2.50;;
45322;SDS011;31382;50.200;8.674;2022-08-03T05:12:36;6.35;;;1.92;;
45322;SDS011;31382;50.200;8.674;2022-08-03T05:17:38;4.10;;;1.33;;
45322;SDS011;31382;50.200;8.674;2022-08-03T05:22:40;2.70;;;1.40;;
45322;SDS011;31382;50.200;8.674;2022-08-03T05:27:41;6.75;;;1.73;;
45322;SDS011;31382;50.200;8.674;2022-08-03T05:32:43;6.13;;;1.17;;
45322;SDS011;31382;50.200;8.674;2022-08-03T05:37:45;1.20;;;1.00;;
45322;SDS011;31382;50.200;8.674;2022-08-03T05:42:54;1.20;;;0.77;;
45322;SDS011;31382;50.200;8.674;2022-08-03T05:47:58;1.90;;;0.90;;
45322;SDS011;31382;50.200;8.674;2022-08-03T05:53:00;2.28;;;1.65;;
45322;SDS011;31382;50.200;8.674;2022-08-03T05:58:01;3.47;;;1.25;;
45322;SDS011;31382;50.200;8.674;2022-08-03T06:03:03;1.65;;;1.00;;
45322;SDS011;31382;50.200;8.674;2022-08-03T06:08:05;2.25;;;1.20;;
45322;SDS011;31382;50.200;8.674;2022-08-03T06:13:07;2.17;;;1.10;;
45322;SDS011;31382;50.200;8.674;2022-08-03T06:18:08;2.35;;;0.85;;
45322;SDS011;31382;50.200;8.674;2022-08-03T06:23:10;2.95;;;1.15;;
45322;SDS011;31382;50.200;8.674;2022-08-03T06:28:18;1.20;;;1.10;;
45322;SDS011;31382;50.200;8.674;2022-08-03T06:33:39;2.00;;;1.10;;
45322;SDS011;31382;50.200;8.674;2022-08-03T06:39:02;2.25;;;1.00;;
45322;SDS011;31382;50.200;8.674;2022-08-03T06:44:08;2.20;;;1.20;;
45322;SDS011;31382;50.200;8.674;2022-08-03T06:49:10;5.13;;;1.33;;
45322;SDS011;31382;50.200;8.674;2022-08-03T06:54:12;5.05;;;1.77;;
45322;SDS011;31382;50.200;8.674;2022-08-03T06:59:14;3.92;;;1.30;;
45322;SDS011;31382;50.200;8.674;2022-08-03T07:04:36;3.05;;;1.00;;
45322;SDS011;31382;50.200;8.674;2022-08-03T07:09:38;1.75;;;1.20;;
45322;SDS011;31382;50.200;8.674;2022-08-03T07:14:41;1.35;;;0.70;;
45322;SDS011;31382;50.200;8.674;2022-08-03T07:19:43;3.20;;;1.08;;
45322;SDS011;31382;50.200;8.674;2022-08-03T07:24:45;3.30;;;1.05;;
45322;SDS011;31382;50.200;8.674;2022-08-03T07:29:47;8.23;;;1.90;;
45322;SDS011;31382;50.200;8.674;2022-08-03T07:34:49;3.38;;;1.30;;
45322;SDS011;31382;50.200;8.674;2022-08-03T07:39:51;2.22;;;0.85;;
45322;SDS011;31382;50.200;8.674;2022-08-03T07:44:53;1.88;;;0.80;;
45322;SDS011;31382;50.200;8.674;2022-08-03T07:49:56;3.83;;;0.70;;
45322;SDS011;31382;50.200;8.674;2022-08-03T07:54:58;9.27;;;0.90;;
45322;SDS011;31382;50.200;8.674;2022-08-03T08:00:00;1.30;;;0.68;;
45322;SDS011;31382;50.200;8.674;2022-08-03T08:05:03;11.75;;;0.70;;
45322;SDS011;31382;50.200;8.674;2022-08-03T08:10:07;4.68;;;0.65;;
45322;SDS011;31382;50.200;8.674;2022-08-03T08:15:10;4.80;;;0.90;;
45322;SDS011;31382;50.200;8.674;2022-08-03T08:20:14;6.03;;;0.73;;
45322;SDS011;31382;50.200;8.674;2022-08-03T08:25:29;4.93;;;0.50;;
45322;SDS011;31382;50.200;8.674;2022-08-03T08:30:32;4.82;;;0.80;;
45322;SDS011;31382;50.200;8.674;2022-08-03T08:35:35;7.55;;;0.70;;
45322;SDS011;31382;50.200;8.674;2022-08-03T08:40:37;1.98;;;0.73;;
45322;SDS011;31382;50.200;8.674;2022-08-03T08:45:39;3.28;;;0.60;;
45322;SDS011;31382;50.200;8.674;2022-08-03T08:50:41;0.85;;;0.40;;
45322;SDS011;31382;50.200;8.674;2022-08-03T08:55:44;1.85;;;0.52;;
45322;SDS011;31382;50.200;8.674;2022-08-03T09:01:00;1.60;;;0.50;;
45322;SDS011;31382;50.200;8.674;2022-08-03T09:06:02;2.60;;;0.50;;
45322;SDS011;31382;50.200;8.674;2022-08-03T09:11:04;2.00;;;0.50;;
45322;SDS011;31382;50.200;8.674;2022-08-03T09:26:36;1.58;;;0.50;;
45322;SDS011;31382;50.200;8.674;2022-08-03T09:31:39;1.92;;;0.63;;
45322;SDS011;31382;50.200;8.674;2022-08-03T09:36:47;1.63;;;0.47;;
45322;SDS011;31382;50.200;8.674;2022-08-03T09:47:31;0.50;;;0.40;;
45322;SDS011;31382;50.200;8.674;2022-08-03T09:52:37;2.47;;;0.40;;
45322;SDS011;31382;50.200;8.674;2022-08-03T09:57:52;3.15;;;0.35;;
45322;SDS011;31382;50.200;8.674;2022-08-03T10:03:05;0.70;;;0.40;;
45322;SDS011;31382;50.200;8.674;2022-08-03T10:08:13;2.30;;;1.00;;
45322;SDS011;31382;50.200;8.674;2022-08-03T10:13:17;2.28;;;0.60;;
45322;SDS011;31382;50.200;8.674;2022-08-03T10:18:19;0.40;;;0.32;;
45322;SDS011;31382;50.200;8.674;2022-08-03T10:23:20;1.23;;;0.50;;
45322;SDS011;31382;50.200;8.674;2022-08-03T10:28:23;0.50;;;0.40;;
45322;SDS011;31382;50.200;8.674;2022-08-03T10:33:26;1.75;;;0.30;;
45322;SDS011;31382;50.200;8.674;2022-08-03T10:38:50;1.77;;;0.40;;
45322;SDS011;31382;50.200;8.674;2022-08-03T10:43:55;0.70;;;0.30;;
45322;SDS011;31382;50.200;8.674;2022-08-03T10:48:58;9.82;;;0.52;;
45322;SDS011;31382;50.200;8.674;2022-08-03T10:54:01;3.50;;;0.40;;
45322;SDS011;31382;50.200;8.674;2022-08-03T10:59:04;3.65;;;0.40;;
45322;SDS011;31382;50.200;8.674;2022-08-03T11:04:18;0.80;;;0.35;;
45322;SDS011;31382;50.200;8.674;2022-08-03T11:09:21;1.42;;;0.50;;
45322;SDS011;31382;50.200;8.674;2022-08-03T11:14:22;1.20;;;0.50;;
45322;SDS011;31382;50.200;8.674;2022-08-03T11:19:24;1.98;;;0.50;;
45322;SDS011;31382;50.200;8.674;2022-08-03T11:24:58;0.90;;;0.60;;
45322;SDS011;31382;50.200;8.674;2022-08-03T11:30:10;4.93;;;0.50;;
45322;SDS011;31382;50.200;8.674;2022-08-03T11:35:22;1.10;;;0.50;;
45322;SDS011;31382;50.200;8.674;2022-08-03T11:40:43;1.60;;;0.40;;
45322;SDS011;31382;50.200;8.674;2022-08-03T11:45:59;0.57;;;0.40;;
45322;SDS011;31382;50.200;8.674;2022-08-03T11:51:25;0.80;;;0.50;;
45322;SDS011;31382;50.200;8.674;2022-08-03T11:56:35;2.58;;;0.50;;
45322;SDS011;31382;50.200;8.674;2022-08-03T12:02:04;2.80;;;0.60;;
45322;SDS011;31382;50.200;8.674;2022-08-03T12:07:07;7.22;;;0.57;;
45322;SDS011;31382;50.200;8.674;2022-08-03T12:12:08;1.67;;;0.50;;
45322;SDS011;31382;50.200;8.674;2022-08-03T12:17:11;0.68;;;0.50;;
45322;SDS011;31382;50.200;8.674;2022-08-03T12:22:13;0.75;;;0.50;;
45322;SDS011;31382;50.200;8.674;2022-08-03T12:27:23;0.70;;;0.40;;
45322;SDS011;31382;50.200;8.674;2022-08-03T12:32:26;1.48;;;0.45;;
45322;SDS011;31382;50.200;8.674;2022-08-03T12:37:29;1.10;;;0.47;;
45322;SDS011;31382;50.200;8.674;2022-08-03T12:42:33;0.77;;;0.40;;
45322;SDS011;31382;50.200;8.674;2022-08-03T12:47:51;1.00;;;0.40;;
45322;SDS011;31382;50.200;8.674;2022-08-03T12:52:54;1.50;;;0.40;;
45322;SDS011;31382;50.200;8.674;2022-08-03T12:58:06;1.03;;;0.70;;
45322;SDS011;31382;50.200;8.674;2022-08-03T13:03:15;2.92;;;0.60;;
45322;SDS011;31382;50.200;8.674;2022-08-03T13:08:37;1.15;;;0.50;;
45322;SDS011;31382;50.200;8.674;2022-08-03T13:13:39;1.08;;;0.60;;
45322;SDS011;31382;50.200;8.674;2022-08-03T13:18:41;1.15;;;0.68;;
45322;SDS011;31382;50.200;8.674;2022-08-03T13:23:43;0.52;;;0.40;;
45322;SDS011;31382;50.200;8.674;2022-08-03T13:28:45;2.70;;;0.40;;
45322;SDS011;31382;50.200;8.674;2022-08-03T13:33:47;2.45;;;0.40;;
45322;SDS011;31382;50.200;8.674;2022-08-03T13:38:48;2.15;;;0.40;;
45322;SDS011;31382;50.200;8.674;2022-08-03T13:43:50;1.60;;;0.35;;
45322;SDS011;31382;50.200;8.674;2022-08-03T13:49:12;0.40;;;0.30;;
45322;SDS011;31382;50.200;8.674;2022-08-03T13:54:14;1.35;;;0.40;;
45322;SDS011;31382;50.200;8.674;2022-08-03T13:59:15;1.33;;;0.40;;
45322;SDS011;31382;50.200;8.674;2022-08-03T14:04:17;0.93;;;0.40;;
45322;SDS011;31382;50.200;8.674;2022-08-03T14:09:22;2.63;;;0.40;;
45322;SDS011;31382;50.200;8.674;2022-08-03T14:14:24;3.03;;;0.30;;
45322;SDS011;31382;50.200;8.674;2022-08-03T14:19:26;0.50;;;0.30;;
45322;SDS011;31382;50.200;8.674;2022-08-03T14:24:28;0.20;;;0.20;;
45322;SDS011;31382;50.200;8.674;2022-08-03T14:29:30;0.82;;;0.28;;
45322;SDS011;31382;50.200;8.674;2022-08-03T14:34:32;6.50;;;0.88;;
45322;SDS011;31382;50.200;8.674;2022-08-03T14:39:33;1.10;;;0.52;;
45322;SDS011;31382;50.200;8.674;2022-08-03T14:44:55;0.70;;;0.30;;
45322;SDS011;31382;50.200;8.674;2022-08-03T14:50:05;0.32;;;0.28;;
45322;SDS011;31382;50.200;8.674;2022-08-03T14:55:27;2.35;;;0.30;;
45322;SDS011;31382;50.200;8.674;2022-08-03T15:00:39;0.68;;;0.20;;
45322;SDS011;31382;50.200;8.674;2022-08-03T15:05:41;0.30;;;0.30;;
45322;SDS011;31382;50.200;8.674;2022-08-03T15:10:42;0.30;;;0.20;;
45322;SDS011;31382;50.200;8.674;2022-08-03T15:15:46;1.30;;;0.20;;
45322;SDS011;31382;50.200;8.674;2022-08-03T15:20:48;0.32;;;0.20;;
45322;SDS011;31382;50.200;8.674;2022-08-03T15:25:51;0.88;;;0.20;;
45322;SDS011;31382;50.200;8.674;2022-08-03T15:31:12;0.35;;;0.20;;
45322;SDS011;31382;50.200;8.674;2022-08-03T15:36:19;0.88;;;0.20;;
45322;SDS011;31382;50.200;8.674;2022-08-03T15:41:21;0.73;;;0.20;;
45322;SDS011;31382;50.200;8.674;2022-08-03T15:46:23;0.52;;;0.20;;
45322;SDS011;31382;50.200;8.674;2022-08-03T15:51:29;1.05;;;0.20;;
45322;SDS011;31382;50.200;8.674;2022-08-03T15:56:31;2.58;;;0.28;;
45322;SDS011;31382;50.200;8.674;2022-08-03T16:01:33;0.30;;;0.28;;
45322;SDS011;31382;50.200;8.674;2022-08-03T16:06:35;0.55;;;0.28;;
45322;SDS011;31382;50.200;8.674;2022-08-03T16:11:37;1.65;;;0.38;;
45322;SDS011;31382;50.200;8.674;2022-08-03T16:16:38;0.20;;;0.20;;
45322;SDS011;31382;50.200;8.674;2022-08-03T16:21:41;0.43;;;0.20;;
45322;SDS011;31382;50.200;8.674;2022-08-03T16:26:50;1.27;;;0.20;;
45322;SDS011;31382;50.200;8.674;2022-08-03T16:31:51;1.75;;;0.20;;
45322;SDS011;31382;50.200;8.674;2022-08-03T16:36:53;1.00;;;0.20;;
45322;SDS011;31382;50.200;8.674;2022-08-03T16:41:55;0.30;;;0.20;;
45322;SDS011;31382;50.200;8.674;2022-08-03T16:47:01;0.30;;;0.20;;
45322;SDS011;31382;50.200;8.674;2022-08-03T16:52:03;9.43;;;0.40;;
45322;SDS011;31382;50.200;8.674;2022-08-03T17:02:11;0.20;;;0.20;;
45322;SDS011;31382;50.200;8.674;2022-08-03T17:07:26;2.58;;;0.13;;
45322;SDS011;31382;50.200;8.674;2022-08-03T17:12:30;0.22;;;0.20;;
45322;SDS011;31382;50.200;8.674;2022-08-03T17:17:33;0.32;;;0.30;;
45322;SDS011;31382;50.200;8.674;2022-08-03T17:22:59;0.47;;;0.20;;
45322;SDS011;31382;50.200;8.674;2022-08-03T17:28:31;1.50;;;0.30;;
45322;SDS011;31382;50.200;8.674;2022-08-03T17:33:57;0.22;;;0.20;;
45322;SDS011;31382;50.200;8.674;2022-08-03T17:39:01;0.55;;;0.30;;
45322;SDS011;31382;50.200;8.674;2022-08-03T17:44:06;0.20;;;0.20;;
45322;SDS011;31382;50.200;8.674;2022-08-03T17:49:28;0.82;;;0.20;;
45322;SDS011;31382;50.200;8.674;2022-08-03T17:54:37;0.32;;;0.20;;
45322;SDS011;31382;50.200;8.674;2022-08-03T18:00:05;2.10;;;0.20;;
45322;SDS011;31382;50.200;8.674;2022-08-03T18:05:29;0.22;;;0.20;;
45322;SDS011;31382;50.200;8.674;2022-08-03T18:11:01;0.40;;;0.27;;
45322;SDS011;31382;50.200;8.674;2022-08-03T18:16:19;0.67;;;0.37;;
45322;SDS011;31382;50.200;8.674;2022-08-03T18:21:26;0.50;;;0.30;;
45322;SDS011;31382;50.200;8.674;2022-08-03T18:26:50;0.68;;;0.30;;
45322;SDS011;31382;50.200;8.674;2022-08-03T18:31:58;0.80;;;0.50;;
45322;SDS011;31382;50.200;8.674;2022-08-03T18:37:10;2.33;;;0.57;;
45322;SDS011;31382;50.200;8.674;2022-08-03T18:42:18;2.80;;;0.60;;
45322;SDS011;31382;50.200;8.674;2022-08-03T19:03:21;1.98;;;0.73;;
45322;SDS011;31382;50.200;8.674;2022-08-03T19:14:04;0.68;;;0.30;;
45322;SDS011;31382;50.200;8.674;2022-08-03T19:19:11;1.42;;;0.60;;
45322;SDS011;31382;50.200;8.674;2022-08-03T19:24:17;5.40;;;1.17;;
45322;SDS011;31382;50.200;8.674;2022-08-03T19:29:26;3.67;;;0.63;;
45322;SDS011;31382;50.200;8.674;2022-08-03T19:34:50;1.45;;;0.40;;
45322;SDS011;31382;50.200;8.674;2022-08-03T19:39:52;1.65;;;0.30;;
45322;SDS011;31382;50.200;8.674;2022-08-03T19:44:58;6.55;;;0.73;;
45322;SDS011;31382;50.200;8.674;2022-08-03T19:50:25;2.78;;;0.60;;
45322;SDS011;31382;50.200;8.674;2022-08-03T19:55:35;6.85;;;0.63;;
45322;SDS011;31382;50.200;8.674;2022-08-03T20:00:49;3.50;;;0.47;;
45322;SDS011;31382;50.200;8.674;2022-08-03T20:05:52;2.38;;;0.50;;
45322;SDS011;31382;50.200;8.674;2022-08-03T20:10:55;6.32;;;0.40;;
45322;SDS011;31382;50.200;8.674;2022-08-03T20:15:57;1.27;;;0.43;;
45322;SDS011;31382;50.200;8.674;2022-08-03T20:21:01;1.10;;;0.50;;
45322;SDS011;31382;50.200;8.674;2022-08-03T20:26:15;5.05;;;0.55;;
45322;SDS011;31382;50.200;8.674;2022-08-03T20:31:20;0.95;;;0.50;;
45322;SDS011;31382;50.200;8.674;2022-08-03T20:36:36;2.08;;;0.55;;
45322;SDS011;31382;50.200;8.674;2022-08-03T20:41:59;0.93;;;0.60;;
45322;SDS011;31382;50.200;8.674;2022-08-03T20:47:02;4.30;;;0.50;;
45322;SDS011;31382;50.200;8.674;2022-08-03T20:52:10;0.80;;;0.40;;
45322;SDS011;31382;50.200;8.674;2022-08-03T20:57:19;0.50;;;0.50;;
45322;SDS011;31382;50.200;8.674;2022-08-03T21:02:21;3.03;;;0.40;;
45322;SDS011;31382;50.200;8.674;2022-08-03T21:07:33;2.45;;;0.40;;
45322;SDS011;31382;50.200;8.674;2022-08-03T21:18:15;0.70;;;0.40;;
45322;SDS011;31382;50.200;8.674;2022-08-03T21:23:18;6.28;;;0.60;;
45322;SDS011;31382;50.200;8.674;2022-08-03T21:28:41;0.95;;;0.50;;
45322;SDS011;31382;50.200;8.674;2022-08-03T21:33:45;1.92;;;0.40;;
45322;SDS011;31382;50.200;8.674;2022-08-03T21:38:47;1.08;;;0.47;;
45322;SDS011;31382;50.200;8.674;2022-08-03T21:43:57;3.72;;;0.40;;
45322;SDS011;31382;50.200;8.674;2022-08-03T21:49:01;3.25;;;0.50;;
45322;SDS011;31382;50.200;8.674;2022-08-03T21:54:30;4.45;;;1.30;;
45322;SDS011;31382;50.200;8.674;2022-08-03T21:59:36;3.20;;;1.45;;
45322;SDS011;31382;50.200;8.674;2022-08-03T22:04:41;5.07;;;1.80;;
45322;SDS011;31382;50.200;8.674;2022-08-03T22:09:57;2.72;;;1.55;;
45322;SDS011;31382;50.200;8.674;2022-08-03T22:15:01;6.22;;;1.50;;
45322;SDS011;31382;50.200;8.674;2022-08-03T22:20:05;1.63;;;0.88;;
45322;SDS011;31382;50.200;8.674;2022-08-03T22:25:11;1.58;;;0.90;;
45322;SDS011;31382;50.200;8.674;2022-08-03T22:30:16;1.05;;;0.70;;
45322;SDS011;31382;50.200;8.674;2022-08-03T22:35:19;1.23;;;0.50;;
45322;SDS011;31382;50.200;8.674;2022-08-03T22:40:24;3.15;;;0.70;;
45322;SDS011;31382;50.200;8.674;2022-08-03T22:45:27;0.60;;;0.60;;
45322;SDS011;31382;50.200;8.674;2022-08-03T22:50:49;1.98;;;0.50;;
45322;SDS011;31382;50.200;8.674;2022-08-03T22:55:51;2.72;;;0.60;;
45322;SDS011;31382;50.200;8.674;2022-08-03T23:01:02;2.08;;;0.50;;
45322;SDS011;31382;50.200;8.674;2022-08-03T23:06:09;0.90;;;0.43;;
45322;SDS011;31382;50.200;8.674;2022-08-03T23:11:11;1.75;;;0.70;;
45322;SDS011;31382;50.200;8.674;2022-08-03T23:16:16;1.05;;;0.50;;
45322;SDS011;31382;50.200;8.674;2022-08-03T23:21:29;1.08;;;0.60;;
45322;SDS011;31382;50.200;8.674;2022-08-03T23:26:51;1.92;;;0.55;;
45322;SDS011;31382;50.200;8.674;2022-08-03T23:31:53;4.35;;;0.50;;
45322;SDS011;31382;50.200;8.674;2022-08-03T23:36:59;1.23;;;0.70;;
45322;SDS011;31382;50.200;8.674;2022-08-03T23:42:01;2.20;;;0.80;;
45322;SDS011;31382;50.200;8.674;2022-08-03T23:47:03;1.60;;;0.70;;
45322;SDS011;31382;50.200;8.674;2022-08-03T23:52:09;1.40;;;0.77;;
45322;SDS011;31382;50.200;8.674;2022-08-03T23:57:28;5.78;;;1.00;;
